sensor_id;sensor_type;location;lat;lon;timestamp;pressure;altitude;pressure_sealevel;temperature;humidity
15308;BME280;7755;52.208;6.964;2022-10-16T00:02:14;100623.38;;;13.02;100.00
15308;BME280;7755;52.208;6.964;2022-10-16T00:06:18;100621.41;;;12.97;100.00
15308;BME280;7755;52.208;6.964;2022-10-16T00:10:20;100624.41;;;12.96;100.00
15308;BME280;7755;52.208;6.964;2022-10-16T00:14:23;100625.72;;;12.93;100.00
15308;BME280;7755;52.208;6.964;2022-10-16T00:18:26;100630.63;;;12.91;100.00
15308;BME280;7755;52.208;6.964;2022-10-16T00:22:28;100626.78;;;12.87;100.00
15308;BME280;7755;52.208;6.964;2022-10-16T00:26:33;100628.34;;;12.83;100.00
15308;BME280;7755;52.208;6.964;2022-10-16T00:30:39;100633.81;;;12.83;100.00
15308;BME280;7755;52.208;6.964;2022-10-16T00:34:41;100627.81;;;12.81;100.00
15308;BME280;7755;52.208;6.964;2022-10-16T00:38:43;100626.13;;;12.80;100.00
15308;BME280;7755;52.208;6.964;2022-10-16T00:42:45;100617.91;;;12.75;100.00
15308;BME280;7755;52.208;6.964;2022-10-16T00:46:50;100630.41;;;12.71;100.00
15308;BME280;7755;52.208;6.964;2022-10-16T00:50:52;100617.59;;;12.71;100.00
15308;BME280;7755;52.208;6.964;2022-10-16T00:54:56;100632.84;;;12.67;100.00
15308;BME280;7755;52.208;6.964;2022-10-16T00:58:58;100621.09;;;12.67;100.00
15308;BME280;7755;52.208;6.964;2022-10-16T01:03:23;100615.06;;;12.65;100.00
15308;BME280;7755;52.208;6.964;2022-10-16T01:07:32;100622.69;;;12.63;100.00
15308;BME280;7755;52.208;6.964;2022-10-16T01:11:45;100625.91;;;12.60;100.00
15308;BME280;7755;52.208;6.964;2022-10-16T01:15:52;100622.13;;;12.61;100.00
15308;BME280;7755;52.208;6.964;2022-10-16T01:20:10;100632.72;;;12.57;100.00
15308;BME280;7755;52.208;6.964;2022-10-16T01:24:17;100625.88;;;12.54;100.00
15308;BME280;7755;52.208;6.964;2022-10-16T01:28:30;100626.97;;;12.53;100.00
15308;BME280;7755;52.208;6.964;2022-10-16T01:32:37;100631.34;;;12.54;100.00
15308;BME280;7755;52.208;6.964;2022-10-16T01:36:46;100630.75;;;12.52;100.00
15308;BME280;7755;52.208;6.964;2022-10-16T01:40:53;100640.81;;;12.52;100.00
15308;BME280;7755;52.208;6.964;2022-10-16T01:44:59;100633.25;;;12.54;100.00
15308;BME280;7755;52.208;6.964;2022-10-16T01:49:05;100632.97;;;12.55;100.00
15308;BME280;7755;52.208;6.964;2022-10-16T01:53:11;100619.34;;;12.55;100.00
15308;BME280;7755;52.208;6.964;2022-10-16T01:57:15;100630.50;;;12.54;100.00
15308;BME280;7755;52.208;6.964;2022-10-16T02:01:23;100628.84;;;12.53;100.00
15308;BME280;7755;52.208;6.964;2022-10-16T02:05:30;100618.78;;;12.53;100.00
15308;BME280;7755;52.208;6.964;2022-10-16T02:09:33;100619.59;;;12.54;100.00
15308;BME280;7755;52.208;6.964;2022-10-16T02:13:39;100604.81;;;12.50;100.00
15308;BME280;7755;52.208;6.964;2022-10-16T02:17:46;100615.16;;;12.48;100.00
15308;BME280;7755;52.208;6.964;2022-10-16T02:21:51;100635.91;;;12.49;100.00
15308;BME280;7755;52.208;6.964;2022-10-16T02:25:58;100634.75;;;12.45;100.00
15308;BME280;7755;52.208;6.964;2022-10-16T02:30:05;100632.34;;;12.48;100.00
15308;BME280;7755;52.208;6.964;2022-10-16T02:34:11;100628.84;;;12.53;100.00
15308;BME280;7755;52.208;6.964;2022-10-16T02:38:15;100616.88;;;12.54;100.00
15308;BME280;7755;52.208;6.964;2022-10-16T02:42:18;100624.78;;;12.55;100.00
15308;BME280;7755;52.208;6.964;2022-10-16T02:46:20;100630.53;;;12.59;100.00
15308;BME280;7755;52.208;6.964;2022-10-16T02:50:24;100636.59;;;12.61;100.00
15308;BME280;7755;52.208;6.964;2022-10-16T02:54:26;100632.78;;;12.62;100.00
15308;BME280;7755;52.208;6.964;2022-10-16T02:58:28;100631.44;;;12.65;100.00
15308;BME280;7755;52.208;6.964;2022-10-16T03:02:29;100630.34;;;12.66;100.00
15308;BME280;7755;52.208;6.964;2022-10-16T03:06:34;100627.69;;;12.71;100.00
15308;BME280;7755;52.208;6.964;2022-10-16T03:10:36;100631.78;;;12.73;100.00
15308;BME280;7755;52.208;6.964;2022-10-16T03:14:38;100628.31;;;12.78;100.00
15308;BME280;7755;52.208;6.964;2022-10-16T03:18:40;100643.16;;;12.87;100.00
15308;BME280;7755;52.208;6.964;2022-10-16T03:22:43;100649.47;;;12.93;100.00
15308;BME280;7755;52.208;6.964;2022-10-16T03:26:45;100656.88;;;12.97;100.00
15308;BME280;7755;52.208;6.964;2022-10-16T03:30:47;100647.88;;;12.97;100.00
15308;BME280;7755;52.208;6.964;2022-10-16T03:34:49;100640.81;;;13.01;100.00
15308;BME280;7755;52.208;6.964;2022-10-16T03:38:52;100636.47;;;13.05;100.00
15308;BME280;7755;52.208;6.964;2022-10-16T03:42:54;100643.34;;;13.07;100.00
15308;BME280;7755;52.208;6.964;2022-10-16T03:46:57;100639.47;;;13.03;100.00
15308;BME280;7755;52.208;6.964;2022-10-16T03:50:59;100650.41;;;13.03;100.00
15308;BME280;7755;52.208;6.964;2022-10-16T03:55:03;100649.00;;;13.01;100.00
15308;BME280;7755;52.208;6.964;2022-10-16T03:59:05;100643.03;;;13.04;100.00
15308;BME280;7755;52.208;6.964;2022-10-16T04:03:07;100644.94;;;13.03;100.00
15308;BME280;7755;52.208;6.964;2022-10-16T04:07:09;100649.00;;;13.01;100.00
15308;BME280;7755;52.208;6.964;2022-10-16T04:11:12;100664.03;;;13.03;100.00
15308;BME280;7755;52.208;6.964;2022-10-16T04:15:14;100667.28;;;13.00;100.00
15308;BME280;7755;52.208;6.964;2022-10-16T04:19:16;100661.53;;;12.97;100.00
15308;BME280;7755;52.208;6.964;2022-10-16T04:23:18;100664.75;;;12.94;100.00
15308;BME280;7755;52.208;6.964;2022-10-16T04:27:21;100669.38;;;12.93;100.00
15308;BME280;7755;52.208;6.964;2022-10-16T04:31:23;100678.34;;;12.89;100.00
15308;BME280;7755;52.208;6.964;2022-10-16T04:35:25;100681.09;;;12.89;100.00
15308;BME280;7755;52.208;6.964;2022-10-16T04:39:28;100686.22;;;12.85;100.00
15308;BME280;7755;52.208;6.964;2022-10-16T04:43:31;100701.22;;;12.82;100.00
15308;BME280;7755;52.208;6.964;2022-10-16T04:47:33;100704.44;;;12.79;100.00
15308;BME280;7755;52.208;6.964;2022-10-16T04:51:34;100709.88;;;12.79;100.00
15308;BME280;7755;52.208;6.964;2022-10-16T04:55:36;100698.41;;;12.77;100.00
15308;BME280;7755;52.208;6.964;2022-10-16T04:59:40;100718.66;;;12.81;100.00
15308;BME280;7755;52.208;6.964;2022-10-16T05:03:42;100711.56;;;12.80;100.00
15308;BME280;7755;52.208;6.964;2022-10-16T05:07:44;100729.50;;;12.76;100.00
15308;BME280;7755;52.208;6.964;2022-10-16T05:11:46;100719.69;;;12.75;100.00
15308;BME280;7755;52.208;6.964;2022-10-16T05:15:49;100716.94;;;12.75;100.00
15308;BME280;7755;52.208;6.964;2022-10-16T05:19:52;100719.09;;;12.73;100.00
15308;BME280;7755;52.208;6.964;2022-10-16T05:23:54;100735.44;;;12.73;100.00
15308;BME280;7755;52.208;6.964;2022-10-16T05:27:56;100729.78;;;12.75;100.00
15308;BME280;7755;52.208;6.964;2022-10-16T05:32:00;100744.78;;;12.77;100.00
15308;BME280;7755;52.208;6.964;2022-10-16T05:36:02;100753.31;;;12.81;100.00
15308;BME280;7755;52.208;6.964;2022-10-16T05:40:05;100757.69;;;12.82;100.00
15308;BME280;7755;52.208;6.964;2022-10-16T05:44:08;100759.81;;;12.80;100.00
15308;BME280;7755;52.208;6.964;2022-10-16T05:48:11;100757.69;;;12.82;100.00
15308;BME280;7755;52.208;6.964;2022-10-16T05:52:13;100776.78;;;12.82;100.00
15308;BME280;7755;52.208;6.964;2022-10-16T05:56:15;100784.16;;;12.81;100.00
15308;BME280;7755;52.208;6.964;2022-10-16T06:00:17;100784.16;;;12.81;100.00
15308;BME280;7755;52.208;6.964;2022-10-16T06:04:20;100790.69;;;12.80;100.00
15308;BME280;7755;52.208;6.964;2022-10-16T06:08:23;100790.69;;;12.80;100.00
15308;BME280;7755;52.208;6.964;2022-10-16T06:12:26;100791.16;;;12.77;100.00
15308;BME280;7755;52.208;6.964;2022-10-16T06:16:29;100814.66;;;12.78;100.00
15308;BME280;7755;52.208;6.964;2022-10-16T06:20:32;100819.84;;;12.80;100.00
15308;BME280;7755;52.208;6.964;2022-10-16T06:24:34;100836.22;;;12.80;100.00
15308;BME280;7755;52.208;6.964;2022-10-16T06:28:36;100823.91;;;12.77;100.00
15308;BME280;7755;52.208;6.964;2022-10-16T06:32:39;100837.28;;;12.79;100.00
15308;BME280;7755;52.208;6.964;2022-10-16T06:36:42;100842.75;;;12.79;100.00
15308;BME280;7755;52.208;6.964;2022-10-16T06:40:44;100846.31;;;12.79;100.00
15308;BME280;7755;52.208;6.964;2022-10-16T06:44:45;100857.22;;;12.79;100.00
15308;BME280;7755;52.208;6.964;2022-10-16T06:48:47;100855.31;;;12.80;100.00
15308;BME280;7755;52.208;6.964;2022-10-16T06:52:51;100873.38;;;12.81;100.00
15308;BME280;7755;52.208;6.964;2022-10-16T06:56:53;100882.13;;;12.83;100.00
15308;BME280;7755;52.208;6.964;2022-10-16T07:00:55;100883.84;;;12.89;100.00
15308;BME280;7755;52.208;6.964;2022-10-16T07:04:58;100895.97;;;12.98;100.00
15308;BME280;7755;52.208;6.964;2022-10-16T07:09:04;100902.66;;;13.07;100.00
15308;BME280;7755;52.208;6.964;2022-10-16T07:13:06;100902.78;;;13.18;100.00
15308;BME280;7755;52.208;6.964;2022-10-16T07:17:08;100907.34;;;13.29;100.00
15308;BME280;7755;52.208;6.964;2022-10-16T07:21:11;100912.44;;;13.42;100.00
15308;BME280;7755;52.208;6.964;2022-10-16T07:25:16;100915.34;;;13.57;100.00
15308;BME280;7755;52.208;6.964;2022-10-16T07:29:19;100912.78;;;13.73;100.00
15308;BME280;7755;52.208;6.964;2022-10-16T07:33:22;100926.59;;;13.88;100.00
15308;BME280;7755;52.208;6.964;2022-10-16T07:37:24;100926.72;;;13.98;100.00
15308;BME280;7755;52.208;6.964;2022-10-16T07:41:27;100941.63;;;14.12;100.00
15308;BME280;7755;52.208;6.964;2022-10-16T07:45:29;100945.28;;;14.23;100.00
15308;BME280;7755;52.208;6.964;2022-10-16T07:49:31;100951.13;;;14.32;100.00
15308;BME280;7755;52.208;6.964;2022-10-16T07:53:33;100961.31;;;14.41;100.00
15308;BME280;7755;52.208;6.964;2022-10-16T07:57:37;100965.47;;;14.44;100.00
15308;BME280;7755;52.208;6.964;2022-10-16T08:01:39;100970.34;;;14.42;100.00
15308;BME280;7755;52.208;6.964;2022-10-16T08:05:42;100984.09;;;14.47;100.00
15308;BME280;7755;52.208;6.964;2022-10-16T08:09:44;100977.84;;;14.52;100.00
15308;BME280;7755;52.208;6.964;2022-10-16T08:13:47;100995.19;;;14.62;100.00
15308;BME280;7755;52.208;6.964;2022-10-16T08:17:57;100987.78;;;14.63;100.00
15308;BME280;7755;52.208;6.964;2022-10-16T08:21:59;101011.16;;;14.70;100.00
15308;BME280;7755;52.208;6.964;2022-10-16T08:26:04;101013.41;;;14.79;100.00
15308;BME280;7755;52.208;6.964;2022-10-16T08:30:09;101012.09;;;14.86;100.00
15308;BME280;7755;52.208;6.964;2022-10-16T08:34:11;101009.41;;;14.91;100.00
15308;BME280;7755;52.208;6.964;2022-10-16T08:38:13;101024.50;;;14.99;100.00
15308;BME280;7755;52.208;6.964;2022-10-16T08:42:26;101029.31;;;15.19;100.00
15308;BME280;7755;52.208;6.964;2022-10-16T08:46:42;101027.19;;;15.26;100.00
15308;BME280;7755;52.208;6.964;2022-10-16T08:50:49;101042.56;;;15.37;100.00
15308;BME280;7755;52.208;6.964;2022-10-16T08:54:53;101041.78;;;15.42;100.00
15308;BME280;7755;52.208;6.964;2022-10-16T08:58:58;101042.91;;;15.46;100.00
15308;BME280;7755;52.208;6.964;2022-10-16T09:03:10;101046.84;;;15.60;100.00
15308;BME280;7755;52.208;6.964;2022-10-16T09:07:19;101055.38;;;15.64;100.00
15308;BME280;7755;52.208;6.964;2022-10-16T09:11:31;101045.31;;;15.74;100.00
15308;BME280;7755;52.208;6.964;2022-10-16T09:15:41;101050.47;;;15.66;100.00
15308;BME280;7755;52.208;6.964;2022-10-16T09:19:51;101074.03;;;15.67;100.00
15308;BME280;7755;52.208;6.964;2022-10-16T09:23:58;101078.72;;;15.66;100.00
15308;BME280;7755;52.208;6.964;2022-10-16T09:28:01;101084.69;;;15.63;100.00
15308;BME280;7755;52.208;6.964;2022-10-16T09:32:10;101085.00;;;15.67;100.00
15308;BME280;7755;52.208;6.964;2022-10-16T09:36:14;101095.78;;;15.78;100.00
15308;BME280;7755;52.208;6.964;2022-10-16T09:40:24;101100.13;;;15.74;100.00
15308;BME280;7755;52.208;6.964;2022-10-16T09:44:29;101104.56;;;15.80;100.00
15308;BME280;7755;52.208;6.964;2022-10-16T09:48:36;101110.59;;;15.82;100.00
15308;BME280;7755;52.208;6.964;2022-10-16T09:52:41;101126.84;;;15.94;100.00
15308;BME280;7755;52.208;6.964;2022-10-16T09:56:43;101126.06;;;15.99;100.00
15308;BME280;7755;52.208;6.964;2022-10-16T10:00:51;101129.03;;;15.97;100.00
15308;BME280;7755;52.208;6.964;2022-10-16T10:04:54;101123.31;;;16.04;100.00
15308;BME280;7755;52.208;6.964;2022-10-16T10:09:00;101136.81;;;16.16;100.00
15308;BME280;7755;52.208;6.964;2022-10-16T10:13:03;101129.97;;;16.18;100.00
15308;BME280;7755;52.208;6.964;2022-10-16T10:17:15;101132.22;;;16.31;100.00
15308;BME280;7755;52.208;6.964;2022-10-16T10:21:18;101138.59;;;16.42;100.00
15308;BME280;7755;52.208;6.964;2022-10-16T10:25:34;101133.41;;;16.56;100.00
15308;BME280;7755;52.208;6.964;2022-10-16T10:29:48;101148.03;;;16.72;100.00
15308;BME280;7755;52.208;6.964;2022-10-16T10:33:55;101148.63;;;16.89;100.00
15308;BME280;7755;52.208;6.964;2022-10-16T10:38:09;101141.25;;;17.10;100.00
15308;BME280;7755;52.208;6.964;2022-10-16T10:42:23;101155.81;;;17.15;97.40
15308;BME280;7755;52.208;6.964;2022-10-16T10:46:32;101144.25;;;17.18;96.19
15308;BME280;7755;52.208;6.964;2022-10-16T10:50:40;101156.94;;;17.35;96.68
15308;BME280;7755;52.208;6.964;2022-10-16T10:54:49;101153.88;;;17.52;96.96
15308;BME280;7755;52.208;6.964;2022-10-16T11:03:37;101146.44;;;17.93;90.80
15308;BME280;7755;52.208;6.964;2022-10-16T11:07:48;101143.69;;;17.93;91.16
15308;BME280;7755;52.208;6.964;2022-10-16T11:11:54;101138.94;;;18.14;89.99
15308;BME280;7755;52.208;6.964;2022-10-16T11:16:02;101150.47;;;18.26;86.86
15308;BME280;7755;52.208;6.964;2022-10-16T11:20:13;101151.00;;;18.33;86.73
15308;BME280;7755;52.208;6.964;2022-10-16T11:24:19;101154.44;;;18.64;88.41
15308;BME280;7755;52.208;6.964;2022-10-16T11:28:33;101163.53;;;19.09;85.92
15308;BME280;7755;52.208;6.964;2022-10-16T11:32:54;101161.19;;;18.92;77.64
15308;BME280;7755;52.208;6.964;2022-10-16T11:37:05;101174.19;;;18.81;79.97
15308;BME280;7755;52.208;6.964;2022-10-16T11:41:15;101177.81;;;18.77;79.64
15308;BME280;7755;52.208;6.964;2022-10-16T11:45:26;101184.47;;;18.71;75.64
15308;BME280;7755;52.208;6.964;2022-10-16T11:49:33;101188.97;;;18.96;78.51
15308;BME280;7755;52.208;6.964;2022-10-16T11:53:45;101185.03;;;19.12;74.01
15308;BME280;7755;52.208;6.964;2022-10-16T11:57:51;101174.25;;;19.16;75.37
15308;BME280;7755;52.208;6.964;2022-10-16T12:01:59;101176.28;;;19.39;75.97
15308;BME280;7755;52.208;6.964;2022-10-16T12:06:26;101183.31;;;19.55;71.78
15308;BME280;7755;52.208;6.964;2022-10-16T12:10:31;101187.50;;;19.53;67.97
15308;BME280;7755;52.208;6.964;2022-10-16T12:14:38;101198.31;;;19.44;70.63
15308;BME280;7755;52.208;6.964;2022-10-16T12:18:41;101198.09;;;19.35;69.69
15308;BME280;7755;52.208;6.964;2022-10-16T12:22:50;101195.91;;;19.38;71.61
15308;BME280;7755;52.208;6.964;2022-10-16T12:26:55;101207.31;;;19.16;70.44
15308;BME280;7755;52.208;6.964;2022-10-16T12:30:58;101209.47;;;18.79;73.40
15308;BME280;7755;52.208;6.964;2022-10-16T12:35:03;101208.97;;;18.62;75.04
15308;BME280;7755;52.208;6.964;2022-10-16T12:39:20;101204.28;;;18.63;74.76
15308;BME280;7755;52.208;6.964;2022-10-16T12:43:26;101205.09;;;18.73;72.99
15308;BME280;7755;52.208;6.964;2022-10-16T12:47:47;101211.91;;;18.91;74.01
15308;BME280;7755;52.208;6.964;2022-10-16T12:51:50;101213.22;;;19.04;73.27
15308;BME280;7755;52.208;6.964;2022-10-16T12:56:02;101223.59;;;19.17;72.74
15308;BME280;7755;52.208;6.964;2022-10-16T13:00:12;101218.41;;;19.11;67.89
15308;BME280;7755;52.208;6.964;2022-10-16T13:04:47;101222.06;;;18.96;69.34
15308;BME280;7755;52.208;6.964;2022-10-16T13:09:17;101221.69;;;19.13;72.01
15308;BME280;7755;52.208;6.964;2022-10-16T13:13:45;101232.13;;;19.21;70.79
15308;BME280;7755;52.208;6.964;2022-10-16T13:17:56;101240.97;;;19.18;69.21
15308;BME280;7755;52.208;6.964;2022-10-16T13:22:05;101243.44;;;19.19;69.78
15308;BME280;7755;52.208;6.964;2022-10-16T13:26:17;101243.16;;;19.16;68.66
15308;BME280;7755;52.208;6.964;2022-10-16T13:30:26;101238.47;;;19.16;67.92
15308;BME280;7755;52.208;6.964;2022-10-16T13:34:29;101248.41;;;19.17;67.69
15308;BME280;7755;52.208;6.964;2022-10-16T13:38:32;101234.31;;;19.24;69.75
15308;BME280;7755;52.208;6.964;2022-10-16T13:42:35;101254.66;;;19.33;70.42
15308;BME280;7755;52.208;6.964;2022-10-16T13:46:38;101255.19;;;19.35;71.04
15308;BME280;7755;52.208;6.964;2022-10-16T13:50:40;101244.44;;;19.33;70.88
15308;BME280;7755;52.208;6.964;2022-10-16T13:54:42;101243.31;;;19.34;67.58
15308;BME280;7755;52.208;6.964;2022-10-16T13:58:44;101253.50;;;19.39;68.64
15308;BME280;7755;52.208;6.964;2022-10-16T14:02:54;101256.03;;;19.30;68.06
15308;BME280;7755;52.208;6.964;2022-10-16T14:06:57;101266.84;;;19.17;68.64
15308;BME280;7755;52.208;6.964;2022-10-16T14:11:00;101263.03;;;19.13;68.17
15308;BME280;7755;52.208;6.964;2022-10-16T14:15:04;101274.59;;;19.15;69.42
15308;BME280;7755;52.208;6.964;2022-10-16T14:19:17;101262.19;;;19.17;68.50
15308;BME280;7755;52.208;6.964;2022-10-16T14:23:23;101268.47;;;19.23;69.68
15308;BME280;7755;52.208;6.964;2022-10-16T14:27:30;101269.56;;;19.32;69.27
15308;BME280;7755;52.208;6.964;2022-10-16T14:31:33;101267.63;;;19.27;68.41
15308;BME280;7755;52.208;6.964;2022-10-16T14:35:39;101262.41;;;19.26;69.02
15308;BME280;7755;52.208;6.964;2022-10-16T14:39:41;101270.47;;;19.17;67.82
15308;BME280;7755;52.208;6.964;2022-10-16T14:43:43;101272.72;;;19.05;69.88
15308;BME280;7755;52.208;6.964;2022-10-16T14:47:49;101266.72;;;18.98;69.60
15308;BME280;7755;52.208;6.964;2022-10-16T14:51:53;101271.94;;;18.94;70.28
15308;BME280;7755;52.208;6.964;2022-10-16T14:55:55;101276.66;;;18.89;71.18
15308;BME280;7755;52.208;6.964;2022-10-16T14:59:57;101279.38;;;18.94;71.83
15308;BME280;7755;52.208;6.964;2022-10-16T15:03:59;101269.75;;;18.91;72.10
15308;BME280;7755;52.208;6.964;2022-10-16T15:08:03;101276.66;;;18.89;71.82
15308;BME280;7755;52.208;6.964;2022-10-16T15:12:05;101276.16;;;18.76;73.00
15308;BME280;7755;52.208;6.964;2022-10-16T15:16:10;101273.16;;;18.68;73.21
15308;BME280;7755;52.208;6.964;2022-10-16T15:20:12;101273.16;;;18.68;74.17
15308;BME280;7755;52.208;6.964;2022-10-16T15:24:15;101279.78;;;18.67;74.57
15308;BME280;7755;52.208;6.964;2022-10-16T15:28:19;101281.38;;;18.63;75.19
15308;BME280;7755;52.208;6.964;2022-10-16T15:32:21;101295.44;;;18.61;75.89
15308;BME280;7755;52.208;6.964;2022-10-16T15:36:26;101298.25;;;18.56;76.20
15308;BME280;7755;52.208;6.964;2022-10-16T15:40:30;101276.78;;;18.43;75.01
15308;BME280;7755;52.208;6.964;2022-10-16T15:44:32;101271.84;;;18.35;75.52
15308;BME280;7755;52.208;6.964;2022-10-16T15:48:34;101274.03;;;18.27;76.36
15308;BME280;7755;52.208;6.964;2022-10-16T15:52:36;101269.94;;;18.20;77.49
15308;BME280;7755;52.208;6.964;2022-10-16T15:56:41;101270.78;;;18.10;79.29
15308;BME280;7755;52.208;6.964;2022-10-16T16:00:43;101283.47;;;17.96;80.83
15308;BME280;7755;52.208;6.964;2022-10-16T16:04:46;101276.28;;;17.80;82.56
15308;BME280;7755;52.208;6.964;2022-10-16T16:08:47;101276.81;;;17.61;83.39
15308;BME280;7755;52.208;6.964;2022-10-16T16:12:51;101283.91;;;17.47;84.59
15308;BME280;7755;52.208;6.964;2022-10-16T16:16:53;101279.81;;;17.34;85.51
15308;BME280;7755;52.208;6.964;2022-10-16T16:20:55;101282.78;;;17.23;86.18
15308;BME280;7755;52.208;6.964;2022-10-16T16:24:58;101288.50;;;17.11;86.65
15308;BME280;7755;52.208;6.964;2022-10-16T16:29:03;101295.59;;;16.97;87.27
15308;BME280;7755;52.208;6.964;2022-10-16T16:33:05;101307.91;;;16.84;88.46
15308;BME280;7755;52.208;6.964;2022-10-16T16:37:07;101308.41;;;16.71;89.29
15308;BME280;7755;52.208;6.964;2022-10-16T16:41:13;101306.34;;;16.56;90.23
15308;BME280;7755;52.208;6.964;2022-10-16T16:45:17;101315.06;;;16.43;91.08
15308;BME280;7755;52.208;6.964;2022-10-16T16:49:19;101323.72;;;16.24;92.34
15308;BME280;7755;52.208;6.964;2022-10-16T16:53:21;101326.59;;;16.07;94.20
15308;BME280;7755;52.208;6.964;2022-10-16T16:57:23;101327.59;;;15.96;94.87
15308;BME280;7755;52.208;6.964;2022-10-16T17:01:27;101340.97;;;15.88;95.63
15308;BME280;7755;52.208;6.964;2022-10-16T17:05:29;101329.66;;;15.79;96.54
15308;BME280;7755;52.208;6.964;2022-10-16T17:09:31;101344.41;;;15.73;97.45
15308;BME280;7755;52.208;6.964;2022-10-16T17:13:34;101336.94;;;15.68;97.99
15308;BME280;7755;52.208;6.964;2022-10-16T17:17:39;101330.56;;;15.63;98.99
15308;BME280;7755;52.208;6.964;2022-10-16T17:21:41;101341.44;;;15.57;100.00
15308;BME280;7755;52.208;6.964;2022-10-16T17:25:49;101360.59;;;15.52;100.00
15308;BME280;7755;52.208;6.964;2022-10-16T17:29:51;101378.06;;;15.46;100.00
15308;BME280;7755;52.208;6.964;2022-10-16T17:33:55;101373.53;;;15.35;100.00
15308;BME280;7755;52.208;6.964;2022-10-16T17:37:56;101374.50;;;15.24;100.00
15308;BME280;7755;52.208;6.964;2022-10-16T17:42:02;101374.72;;;15.17;100.00
15308;BME280;7755;52.208;6.964;2022-10-16T17:46:04;101377.66;;;15.11;100.00
15308;BME280;7755;52.208;6.964;2022-10-16T17:50:08;101367.75;;;15.10;100.00
15308;BME280;7755;52.208;6.964;2022-10-16T17:54:11;101361.97;;;15.06;100.00
15308;BME280;7755;52.208;6.964;2022-10-16T17:58:14;101368.28;;;15.07;100.00
15308;BME280;7755;52.208;6.964;2022-10-16T18:02:16;101353.19;;;15.04;100.00
15308;BME280;7755;52.208;6.964;2022-10-16T18:06:21;101355.94;;;15.04;100.00
15308;BME280;7755;52.208;6.964;2022-10-16T18:10:24;101347.94;;;15.02;100.00
15308;BME280;7755;52.208;6.964;2022-10-16T18:14:27;101356.16;;;15.02;100.00
15308;BME280;7755;52.208;6.964;2022-10-16T18:18:31;101357.50;;;15.00;100.00
15308;BME280;7755;52.208;6.964;2022-10-16T18:22:36;101363.25;;;14.98;100.00
15308;BME280;7755;52.208;6.964;2022-10-16T18:26:38;101367.28;;;14.96;100.00
15308;BME280;7755;52.208;6.964;2022-10-16T18:30:40;101364.25;;;14.92;100.00
15308;BME280;7755;52.208;6.964;2022-10-16T18:34:42;101376.78;;;14.88;100.00
15308;BME280;7755;52.208;6.964;2022-10-16T18:38:45;101370.72;;;14.86;100.00
15308;BME280;7755;52.208;6.964;2022-10-16T18:42:47;101361.97;;;14.84;100.00
15308;BME280;7755;52.208;6.964;2022-10-16T18:46:49;101363.00;;;14.83;100.00
15308;BME280;7755;52.208;6.964;2022-10-16T18:51:06;101357.78;;;14.82;100.00
15308;BME280;7755;52.208;6.964;2022-10-16T18:55:11;101367.66;;;14.83;100.00
15308;BME280;7755;52.208;6.964;2022-10-16T18:59:13;101375.03;;;14.82;100.00
15308;BME280;7755;52.208;6.964;2022-10-16T19:03:16;101375.03;;;14.82;100.00
15308;BME280;7755;52.208;6.964;2022-10-16T19:07:18;101385.44;;;14.80;100.00
15308;BME280;7755;52.208;6.964;2022-10-16T19:11:23;101385.69;;;14.79;100.00
15308;BME280;7755;52.208;6.964;2022-10-16T19:15:25;101399.63;;;14.77;100.00
15308;BME280;7755;52.208;6.964;2022-10-16T19:19:27;101398.22;;;14.74;100.00
15308;BME280;7755;52.208;6.964;2022-10-16T19:23:41;101389.44;;;14.72;100.00
15308;BME280;7755;52.208;6.964;2022-10-16T19:27:44;101383.13;;;14.72;100.00
15308;BME280;7755;52.208;6.964;2022-10-16T19:31:47;101389.44;;;14.72;100.00
15308;BME280;7755;52.208;6.964;2022-10-16T19:35:49;101394.06;;;14.72;100.00
15308;BME280;7755;52.208;6.964;2022-10-16T19:39:51;101407.75;;;14.72;100.00
15308;BME280;7755;52.208;6.964;2022-10-16T19:43:59;101425.28;;;14.71;100.00
15308;BME280;7755;52.208;6.964;2022-10-16T19:48:01;101446.81;;;14.67;100.00
15308;BME280;7755;52.208;6.964;2022-10-16T19:52:04;101448.41;;;14.63;100.00
15308;BME280;7755;52.208;6.964;2022-10-16T19:56:11;101441.59;;;14.66;100.00
15308;BME280;7755;52.208;6.964;2022-10-16T20:00:17;101457.50;;;14.69;100.00
15308;BME280;7755;52.208;6.964;2022-10-16T20:04:20;101449.91;;;14.71;100.00
15308;BME280;7755;52.208;6.964;2022-10-16T20:08:23;101467.72;;;14.73;100.00
15308;BME280;7755;52.208;6.964;2022-10-16T20:12:26;101472.94;;;14.75;100.00
15308;BME280;7755;52.208;6.964;2022-10-16T20:16:30;101481.16;;;14.75;100.00
15308;BME280;7755;52.208;6.964;2022-10-16T20:20:36;101456.78;;;14.73;100.00
15308;BME280;7755;52.208;6.964;2022-10-16T20:24:37;101442.84;;;14.75;100.00
15308;BME280;7755;52.208;6.964;2022-10-16T20:28:41;101423.41;;;14.77;100.00
15308;BME280;7755;52.208;6.964;2022-10-16T20:32:44;101417.72;;;14.78;100.00
15308;BME280;7755;52.208;6.964;2022-10-16T20:36:46;101411.63;;;14.76;100.00
15308;BME280;7755;52.208;6.964;2022-10-16T20:40:51;101420.94;;;14.75;100.00
15308;BME280;7755;52.208;6.964;2022-10-16T20:44:53;101438.97;;;14.71;100.00
15308;BME280;7755;52.208;6.964;2022-10-16T20:48:56;101443.09;;;14.73;100.00
15308;BME280;7755;52.208;6.964;2022-10-16T20:52:59;101441.91;;;14.69;100.00
15308;BME280;7755;52.208;6.964;2022-10-16T20:57:01;101440.53;;;14.67;100.00
15308;BME280;7755;52.208;6.964;2022-10-16T21:01:05;101454.56;;;14.70;100.00
15308;BME280;7755;52.208;6.964;2022-10-16T21:05:09;101456.22;;;14.71;100.00
15308;BME280;7755;52.208;6.964;2022-10-16T21:09:11;101447.41;;;14.69;100.00
15308;BME280;7755;52.208;6.964;2022-10-16T21:13:12;101421.44;;;14.72;100.00
15308;BME280;7755;52.208;6.964;2022-10-16T21:17:15;101438.69;;;14.72;100.00
15308;BME280;7755;52.208;6.964;2022-10-16T21:21:23;101428.00;;;14.71;100.00
15308;BME280;7755;52.208;6.964;2022-10-16T21:25:25;101433.47;;;14.71;100.00
15308;BME280;7755;52.208;6.964;2022-10-16T21:29:28;101422.75;;;14.69;100.00